Time;durP1;ratioP1;P1;durP2;ratioP2;P2;SDS_P1;SDS_P2;PMS_P1;PMS_P2;Temp;Humidity;BMP_temperature;BMP_pressure;BME280_temperature;BME280_humidity;BME280_pressure;Samples;Min_cycle;Max_cycle;Signal;HPM_P1;HPM_P2
2023/01/27 00:00:41;;;;;;;19.47;17.50;;;2.00;53.90;;;;;;20519;6841;278070;-75
2023/01/27 00:03:07;;;;;;;15.93;13.98;;;2.30;53.10;;;;;;20706;6841;118128;-76
2023/01/27 00:05:32;;;;;;;14.90;12.97;;;2.30;52.90;;;;;;20706;6841;118344;-75
2023/01/27 00:07:58;;;;;;;14.60;13.07;;;2.10;53.20;;;;;;20724;6841;117363;-75
2023/01/27 00:10:24;;;;;;;16.20;12.57;;;1.90;54.10;;;;;;20725;6841;117868;-76
2023/01/27 00:15:35;;;;;;;19.07;17.07;;;1.70;54.30;;;;;;20231;6841;307198;-76
2023/01/27 00:18:01;;;;;;;19.60;17.70;;;2.00;54.30;;;;;;20519;6841;278136;-75
2023/01/27 00:25:59;;;;;;;18.13;14.10;;;2.50;52.50;;;;;;20742;6840;117200;-75
2023/01/27 00:28:24;;;;;;;21.05;18.90;;;2.30;54.10;;;;;;20508;6841;336894;-75
2023/01/27 00:30:49;;;;;;;17.37;15.10;;;2.30;53.50;;;;;;20726;6841;119494;-75
2023/01/27 00:33:28;;;;;;;19.23;14.43;;;2.30;53.30;;;;;;20706;6841;120781;-75
2023/01/27 00:36:03;;;;;;;19.90;17.90;;;2.10;53.40;;;;;;20514;6841;313667;-76
2023/01/27 00:38:29;;;;;;;20.25;18.20;;;2.30;53.40;;;;;;20495;6841;337275;-76
2023/01/27 00:41:18;;;;;;;21.67;18.87;;;2.60;52.60;;;;;;20502;6841;278131;-75
2023/01/27 00:43:40;;;;;;;108.20;70.70;;;2.80;52.10;;;;;;20724;6841;117713;-76
2023/01/27 00:46:07;;;;;;;18.90;14.30;;;2.60;51.90;;;;;;20729;6841;117538;-75
2023/01/27 00:48:33;;;;;;;21.17;18.92;;;2.40;52.50;;;;;;20509;6841;308438;-75
2023/01/27 00:50:58;;;;;;;21.20;18.90;;;2.40;53.00;;;;;;20506;6841;279656;-75
2023/01/27 00:53:24;;;;;;;18.58;14.85;;;2.60;52.30;;;;;;20730;6841;119748;-76
2023/01/27 00:55:49;;;;;;;20.10;18.00;;;2.60;52.30;;;;;;20516;6841;283714;-75
2023/01/27 00:58:15;;;;;;;20.00;17.90;;;2.60;52.40;;;;;;20519;6841;308890;-75
2023/01/27 01:00:40;;;;;;;20.33;18.33;;;2.80;51.90;;;;;;20519;6841;306934;-75
2023/01/27 01:03:07;;;;;;;16.80;14.60;;;2.90;51.40;;;;;;20700;6841;120933;-75
2023/01/27 01:05:32;;;;;;;17.00;13.80;;;2.90;51.30;;;;;;20722;6841;119778;-76
2023/01/27 01:07:58;;;;;;;17.30;14.30;;;2.60;51.90;;;;;;20728;6841;117926;-76
2023/01/27 01:10:23;;;;;;;20.42;18.23;;;2.30;52.40;;;;;;20515;6841;306505;-75
2023/01/27 01:12:49;;;;;;;18.97;14.33;;;2.40;52.60;;;;;;20731;6841;118590;-75
2023/01/27 01:15:15;;;;;;;16.33;14.10;;;2.10;52.90;;;;;;20704;6841;118705;-76
2023/01/27 01:17:41;;;;;;;15.30;12.97;;;2.10;52.70;;;;;;20727;6841;121372;-75
2023/01/27 01:20:07;;;;;;;17.03;12.87;;;2.00;53.30;;;;;;20723;6841;117355;-75
2023/01/27 01:22:32;;;;;;;21.77;19.47;;;1.80;53.50;;;;;;20515;6841;277784;-75
2023/01/27 01:24:58;;;;;;;18.10;15.45;;;2.00;54.00;;;;;;20706;6841;144205;-76
2023/01/27 01:27:23;;;;;;;21.00;18.67;;;2.10;53.80;;;;;;20511;6841;341133;-75
2023/01/27 01:29:49;;;;;;;20.83;14.93;;;2.20;53.50;;;;;;20728;6841;119438;-75
2023/01/27 01:32:15;;;;;;;21.05;18.85;;;2.20;53.20;;;;;;20516;6841;287803;-75
2023/01/27 01:34:40;;;;;;;17.33;15.23;;;2.30;53.20;;;;;;20730;6839;117715;-75
2023/01/27 01:37:06;;;;;;;19.12;15.45;;;2.30;53.00;;;;;;20710;6840;120666;-75
2023/01/27 01:39:31;;;;;;;18.60;14.30;;;2.10;53.30;;;;;;20727;6841;117837;-76
2023/01/27 01:41:57;;;;;;;20.43;18.30;;;2.00;53.80;;;;;;20528;6841;278297;-75
2023/01/27 01:44:23;;;;;;;17.70;14.03;;;2.10;53.60;;;;;;20735;6841;117301;-76
2023/01/27 01:46:49;;;;;;;19.37;13.53;;;2.10;53.60;;;;;;20719;6841;117669;-75
2023/01/27 01:49:14;;;;;;;15.65;12.80;;;2.00;53.80;;;;;;20704;6841;119583;-75
2023/01/27 01:51:40;;;;;;;20.30;18.20;;;1.90;54.00;;;;;;20510;6841;337298;-75
2023/01/27 01:54:32;;;;;;;16.67;14.30;;;2.00;54.10;;;;;;20698;6841;121340;-75
2023/01/27 01:57:00;;;;;;;20.93;18.73;;;2.10;54.00;;;;;;20490;6841;297665;-75
2023/01/27 01:59:27;;;;;;;21.10;18.90;;;2.30;53.80;;;;;;20511;6841;301481;-75
2023/01/27 02:01:53;;;;;;;17.33;14.50;;;2.60;52.60;;;;;;20694;6841;117209;-75
2023/01/27 02:04:18;;;;;;;20.53;18.43;;;2.50;52.30;;;;;;20473;6841;279223;-75
2023/01/27 02:07:11;;;;;;;20.45;18.35;;;2.60;52.30;;;;;;20487;6841;308120;-75
2023/01/27 02:09:36;;;;;;;16.13;14.07;;;2.80;52.00;;;;;;19442;7186;123575;-76
2023/01/27 02:12:02;;;;;;;19.85;17.75;;;2.60;51.90;;;;;;19989;6841;307744;-75
2023/01/27 02:14:28;;;;;;;19.23;14.70;;;2.60;52.00;;;;;;20710;6841;117696;-75
2023/01/27 02:16:53;;;;;;;20.45;18.25;;;2.40;52.00;;;;;;20472;6841;308136;-74
2023/01/27 02:19:42;;;;;;;17.80;14.40;;;2.50;52.30;;;;;;20720;6841;122418;-76
2023/01/27 02:22:08;;;;;;;21.73;18.70;;;2.40;52.20;;;;;;19943;6841;311275;-76
2023/01/27 02:24:33;;;;;;;19.07;15.37;;;2.40;52.30;;;;;;20717;6841;117334;-76
2023/01/27 02:26:59;;;;;;;23.73;20.17;;;2.40;53.00;;;;;;20459;6841;278637;-75
2023/01/27 02:29:27;;;;;;;23.20;20.75;;;2.60;52.50;;;;;;20507;6841;278755;-76
2023/01/27 02:31:51;;;;;;;21.23;16.93;;;2.60;52.50;;;;;;20700;6841;117333;-77
2023/01/27 02:34:16;;;;;;;22.37;20.10;;;2.60;52.50;;;;;;20505;6841;308026;-74
2023/01/27 02:36:46;;;;;;;29.33;22.57;;;2.60;52.60;;;;;;20714;6841;117384;-75
2023/01/27 02:39:12;;;;;;;23.17;20.30;;;2.60;53.00;;;;;;20485;6841;302004;-75
2023/01/27 02:41:51;;;;;;;23.03;20.50;;;2.50;52.70;;;;;;20504;6841;345189;-75
2023/01/27 02:44:16;;;;;;;20.37;16.70;;;2.80;52.10;;;;;;20719;6839;120858;-75
2023/01/27 02:46:42;;;;;;;20.40;16.07;;;2.70;52.10;;;;;;20726;6840;119512;-75
2023/01/27 02:49:07;;;;;;;19.73;15.00;;;2.40;52.60;;;;;;20697;6840;122986;-75
2023/01/27 02:51:33;;;;;;;25.17;21.30;;;2.20;53.20;;;;;;20503;6841;313339;-75
2023/01/27 02:53:58;;;;;;;26.27;22.00;;;2.30;53.30;;;;;;20468;6841;341847;-75
2023/01/27 02:56:24;;;;;;;22.50;17.60;;;2.60;52.90;;;;;;20684;6841;117759;-75
2023/01/27 02:58:51;;;;;;;25.05;22.33;;;2.50;52.50;;;;;;20427;6840;312120;-76
2023/01/27 03:01:17;;;;;;;20.43;16.63;;;2.50;52.70;;;;;;20712;6841;122059;-76
2023/01/27 03:03:45;;;;;;;23.58;21.08;;;2.50;52.70;;;;;;20515;6841;327077;-76
2023/01/27 03:06:09;;;;;;;24.50;21.85;;;2.70;52.40;;;;;;20505;6841;308450;-76
2023/01/27 03:08:35;;;;;;;21.57;17.30;;;2.70;52.40;;;;;;20707;6841;118851;-77
2023/01/27 03:11:01;;;;;;;21.90;16.73;;;2.70;52.40;;;;;;20692;6841;141807;-77
2023/01/27 03:13:28;;;;;;;23.42;20.23;;;2.40;52.90;;;;;;20515;6841;278612;-77
2023/01/27 03:18:38;;;;;;;19.30;16.30;;;2.70;52.50;;;;;;20731;6841;117767;-77
2023/01/27 03:21:04;;;;;;;22.87;20.55;;;2.60;52.40;;;;;;20504;6841;278501;-75
2023/01/27 03:23:34;;;;;;;23.23;20.83;;;2.60;52.60;;;;;;20528;6841;279066;-75
2023/01/27 03:26:00;;;;;;;22.13;17.33;;;2.90;52.40;;;;;;20726;6841;118110;-76
2023/01/27 03:28:25;;;;;;;22.93;20.40;;;2.80;52.30;;;;;;20521;6841;279615;-75
2023/01/27 03:30:51;;;;;;;24.77;22.10;;;2.80;52.40;;;;;;20502;6841;307157;-76
2023/01/27 03:33:16;;;;;;;22.20;19.90;;;3.00;51.90;;;;;;20525;6841;298721;-75
2023/01/27 03:46:45;;;;;;;15.97;14.17;;;2.70;51.70;;;;;;20727;6841;117651;-76
2023/01/27 03:49:11;;;;;;;18.63;13.20;;;2.10;52.90;;;;;;20707;6841;119022;-76
2023/01/27 03:51:37;;;;;;;18.07;13.97;;;2.10;52.90;;;;;;20729;6841;118100;-76
2023/01/27 03:54:02;;;;;;;23.33;19.80;;;1.90;53.40;;;;;;20525;6841;311800;-76
2023/01/27 03:56:29;;;;;;;22.42;20.08;;;2.40;52.90;;;;;;20521;6839;307680;-77
2023/01/27 03:58:54;;;;;;;22.43;20.07;;;2.40;52.90;;;;;;20490;6840;308001;-78
2023/01/27 04:01:20;;;;;;;24.17;20.25;;;2.70;52.20;;;;;;20500;6840;281924;-76
2023/01/27 04:09:17;;;;;;;18.60;16.13;;;3.20;51.10;;;;;;20726;6841;117586;-76
2023/01/27 04:11:55;;;;;;;18.35;14.60;;;3.00;51.30;;;;;;20719;6841;117313;-75
2023/01/27 04:14:20;;;;;;;19.63;15.60;;;2.60;51.90;;;;;;20728;6841;117780;-75
2023/01/27 04:16:46;;;;;;;21.93;14.77;;;2.30;52.50;;;;;;20712;6841;117872;-75
2023/01/27 04:19:11;;;;;;;22.90;20.50;;;2.10;53.00;;;;;;20496;6841;336405;-75
2023/01/27 04:21:37;;;;;;;19.83;16.17;;;2.20;53.20;;;;;;20731;6841;118237;-75
2023/01/27 04:24:03;;;;;;;22.90;20.50;;;2.20;53.10;;;;;;20516;6841;298637;-75
2023/01/27 04:26:32;;;;;;;17.03;15.07;;;2.40;53.10;;;;;;20718;6841;117394;-75
2023/01/27 04:28:54;;;;;;;18.37;14.32;;;2.40;52.90;;;;;;20695;6841;121457;-75
2023/01/27 04:31:20;;;;;;;22.65;20.25;;;2.20;53.10;;;;;;20514;6841;308931;-76
2023/01/27 04:33:45;;;;;;;18.90;16.43;;;2.20;53.20;;;;;;20730;6841;117746;-75
2023/01/27 04:36:15;;;;;;;19.90;16.03;;;2.20;53.10;;;;;;20726;6841;117348;-75
2023/01/27 04:38:39;;;;;;;22.60;20.27;;;2.10;53.40;;;;;;20525;6841;279360;-75
2023/01/27 04:41:05;;;;;;;24.83;21.87;;;2.20;53.50;;;;;;20494;6841;284749;-78
2023/01/27 04:43:30;;;;;;;22.73;20.42;;;2.50;53.10;;;;;;20527;6841;308941;-77
2023/01/27 04:45:56;;;;;;;23.20;20.70;;;2.80;52.50;;;;;;20525;6841;340768;-78
2023/01/27 04:48:21;;;;;;;23.93;20.57;;;3.10;51.80;;;;;;20502;6841;307587;-79
2023/01/27 04:50:49;;;;;;;23.67;20.70;;;3.30;51.10;;;;;;20519;6841;311162;-79
2023/01/27 04:53:15;;;;;;;23.00;20.60;;;3.40;50.90;;;;;;20499;6841;307256;-75
2023/01/27 04:55:41;;;;;;;21.70;19.30;;;3.40;50.90;;;;;;20509;6841;337662;-76
2023/01/27 04:58:06;;;;;;;20.48;15.55;;;3.50;50.60;;;;;;20716;6841;117728;-76
2023/01/27 05:00:32;;;;;;;18.02;15.15;;;3.20;50.70;;;;;;20736;6841;119023;-75
2023/01/27 05:03:00;;;;;;;17.73;14.60;;;2.60;52.10;;;;;;20660;6841;122408;-75
2023/01/27 05:05:25;;;;;;;16.60;14.07;;;2.50;52.00;;;;;;20728;6841;117264;-77
2023/01/27 05:07:51;;;;;;;22.75;20.35;;;2.30;52.50;;;;;;20517;6839;316224;-80
2023/01/27 05:10:16;;;;;;;22.87;20.48;;;2.40;52.80;;;;;;20530;6840;282561;-77
2023/01/27 05:12:43;;;;;;;18.67;15.77;;;2.70;52.40;;;;;;20727;6840;117653;-77
2023/01/27 05:15:09;;;;;;;18.53;14.47;;;2.60;52.00;;;;;;20709;6841;118050;-77
2023/01/27 05:17:34;;;;;;;15.85;14.15;;;2.40;52.40;;;;;;20729;6841;117628;-77
2023/01/27 05:20:01;;;;;;;17.63;13.43;;;2.10;53.90;;;;;;20727;6841;117516;-75
2023/01/27 05:22:26;;;;;;;19.83;17.83;;;2.00;53.40;;;;;;20514;6841;308155;-75
2023/01/27 05:24:52;;;;;;;16.03;13.17;;;2.20;53.30;;;;;;20710;6841;117372;-78
2023/01/27 05:27:17;;;;;;;19.00;17.08;;;2.20;52.90;;;;;;20519;6841;278128;-78
2023/01/27 05:29:43;;;;;;;19.25;17.33;;;2.30;52.80;;;;;;20515;6841;298971;-79
2023/01/27 05:32:08;;;;;;;15.67;13.97;;;2.60;52.10;;;;;;20730;6841;121936;-77
2023/01/27 05:34:34;;;;;;;18.98;16.98;;;2.60;52.00;;;;;;20526;6841;309090;-78
2023/01/27 05:37:00;;;;;;;15.50;13.87;;;2.60;51.70;;;;;;20711;6841;117840;-77
2023/01/27 05:39:25;;;;;;;19.60;17.20;;;2.50;51.60;;;;;;20511;6841;301918;-78
2023/01/27 05:41:53;;;;;;;19.33;17.33;;;2.50;51.60;;;;;;20518;6841;278514;-81
2023/01/27 05:44:17;;;;;;;19.37;17.37;;;2.70;51.60;;;;;;20510;6841;323332;-80
2023/01/27 05:46:44;;;;;;;19.30;17.40;;;2.90;51.10;;;;;;20505;6841;307713;-74
2023/01/27 05:49:10;;;;;;;16.87;14.80;;;3.00;50.70;;;;;;20710;6841;118599;-76
2023/01/27 05:51:36;;;;;;;18.23;13.65;;;2.80;50.70;;;;;;20728;6841;117665;-79
2023/01/27 05:54:02;;;;;;;16.42;13.35;;;2.20;52.50;;;;;;20733;6841;117714;-74
2023/01/27 05:56:27;;;;;;;18.37;14.83;;;2.20;51.90;;;;;;20730;6841;117447;-77
2023/01/27 05:58:53;;;;;;;20.03;17.93;;;2.00;52.50;;;;;;20491;6841;278405;-76
2023/01/27 06:01:19;;;;;;;20.02;18.02;;;2.40;52.60;;;;;;20513;6841;312592;-81
2023/01/27 06:03:45;;;;;;;19.30;16.13;;;2.40;52.60;;;;;;20707;6841;117242;-77
2023/01/27 06:06:10;;;;;;;15.90;13.63;;;2.40;52.30;;;;;;20718;6841;117463;-81
2023/01/27 06:08:36;;;;;;;19.27;17.30;;;2.10;52.50;;;;;;20506;6841;290220;-80
2023/01/27 06:11:02;;;;;;;15.70;12.97;;;2.20;52.70;;;;;;20663;6841;117662;-80
2023/01/27 06:13:27;;;;;;;15.47;13.70;;;2.20;52.60;;;;;;20714;6841;117956;-78
2023/01/27 06:15:54;;;;;;;112.23;87.97;;;2.00;52.80;;;;;;20481;6841;307558;-78
2023/01/27 06:18:18;;;;;;;20.47;16.03;;;2.10;53.10;;;;;;20710;6841;67946;-77
2023/01/27 06:20:49;;;;;;;17.20;13.02;;;1.90;53.00;;;;;;20715;6839;117106;-78
2023/01/27 06:23:14;;;;;;;16.17;13.43;;;1.90;53.00;;;;;;20686;6840;117294;-77
2023/01/27 06:25:41;;;;;;;13.80;12.40;;;1.70;53.70;;;;;;20677;6840;117602;-78
2023/01/27 06:28:06;;;;;;;18.23;16.43;;;1.60;53.60;;;;;;20456;6841;307471;-80
2023/01/27 06:30:35;;;;;;;15.50;12.98;;;1.80;53.80;;;;;;20689;6841;117383;-78
2023/01/27 06:33:01;;;;;;;20.10;18.02;;;1.80;53.50;;;;;;20464;6841;328370;-77
2023/01/27 06:35:26;;;;;;;16.70;14.60;;;2.00;52.70;;;;;;20735;6841;117898;-79
2023/01/27 06:37:52;;;;;;;20.52;18.55;;;2.00;53.00;;;;;;20527;6841;278359;-75
2023/01/27 06:40:17;;;;;;;19.35;17.55;;;2.10;52.80;;;;;;20531;6841;314667;-77
2023/01/27 06:42:43;;;;;;;18.30;16.60;;;2.40;53.10;;;;;;20525;6841;310116;-82
2023/01/27 06:45:12;;;;;;;18.93;17.13;;;2.60;51.70;;;;;;20493;6841;308667;-80
2023/01/27 06:47:37;;;;;;;19.07;17.23;;;2.80;51.10;;;;;;20512;6841;312375;-79
2023/01/27 06:50:04;;;;;;;16.17;14.48;;;2.90;50.60;;;;;;20725;6841;117621;-77
2023/01/27 06:52:31;;;;;;;18.37;16.58;;;2.80;50.80;;;;;;20519;6841;311853;-77
2023/01/27 06:54:57;;;;;;;21.40;19.20;;;2.70;50.90;;;;;;20494;6841;307669;-78
2023/01/27 06:57:22;;;;;;;21.27;19.12;;;2.80;50.70;;;;;;20494;6841;308456;-76
2023/01/27 06:59:48;;;;;;;15.70;14.13;;;3.00;50.90;;;;;;20730;6841;117325;-77
2023/01/27 07:02:14;;;;;;;19.52;17.65;;;2.80;51.00;;;;;;20484;6841;307346;-77
2023/01/27 07:04:39;;;;;;;20.30;18.25;;;2.70;51.00;;;;;;20523;6841;278508;-78
2023/01/27 07:07:05;;;;;;;17.97;14.63;;;2.90;51.10;;;;;;20689;6841;117716;-78
2023/01/27 07:09:31;;;;;;;19.57;17.67;;;2.80;51.20;;;;;;20514;6841;278746;-80
2023/01/27 07:11:57;;;;;;;19.12;17.12;;;2.70;51.40;;;;;;20518;6841;337079;-75
2023/01/27 07:14:23;;;;;;;17.85;15.23;;;2.90;50.80;;;;;;20731;6841;117690;-77
2023/01/27 07:16:48;;;;;;;15.83;13.37;;;2.80;51.50;;;;;;20727;6841;117367;-79
2023/01/27 07:19:15;;;;;;;16.12;13.57;;;2.20;51.90;;;;;;20707;6841;117438;-79
2023/01/27 07:21:40;;;;;;;21.63;19.43;;;2.20;51.90;;;;;;20514;6841;278491;-78
2023/01/27 07:24:06;;;;;;;17.03;14.60;;;2.30;52.30;;;;;;20709;6841;117410;-78
2023/01/27 07:26:32;;;;;;;20.83;18.73;;;2.30;52.40;;;;;;20519;6841;337264;-78
2023/01/27 07:28:57;;;;;;;18.50;15.37;;;2.30;52.40;;;;;;20718;6841;127474;-79
2023/01/27 07:31:24;;;;;;;20.23;14.32;;;2.30;52.40;;;;;;20728;6839;117925;-78
2023/01/27 07:33:50;;;;;;;18.10;14.40;;;2.10;52.50;;;;;;20733;6840;117226;-78
2023/01/27 07:36:15;;;;;;;17.77;14.50;;;1.80;52.80;;;;;;20727;6840;117185;-79
2023/01/27 07:38:41;;;;;;;16.10;13.93;;;1.70;53.40;;;;;;20735;6841;117934;-80
2023/01/27 07:41:06;;;;;;;17.95;14.05;;;1.50;53.60;;;;;;20700;6841;118016;-80
2023/01/27 07:43:33;;;;;;;22.53;20.13;;;1.60;54.60;;;;;;20478;6841;291632;-76
2023/01/27 07:45:58;;;;;;;23.23;20.73;;;1.60;54.60;;;;;;20508;6841;278536;-77
2023/01/27 07:48:24;;;;;;;24.30;17.80;;;2.00;54.10;;;;;;20700;6841;117328;-79
2023/01/27 07:50:49;;;;;;;21.45;19.35;;;2.00;53.70;;;;;;20489;6841;277731;-77
2023/01/27 07:53:15;;;;;;;28.07;21.70;;;2.20;53.90;;;;;;20681;6841;119464;-76
2023/01/27 07:55:40;;;;;;;19.37;16.37;;;2.10;53.40;;;;;;20682;6841;117399;-77
2023/01/27 07:58:06;;;;;;;23.75;21.20;;;1.90;53.60;;;;;;20496;6841;332315;-77
2023/01/27 08:00:32;;;;;;;19.70;16.20;;;2.00;54.10;;;;;;20701;6841;117820;-76
2023/01/27 08:02:57;;;;;;;22.23;19.83;;;2.00;53.90;;;;;;20465;6841;291509;-77
2023/01/27 08:05:23;;;;;;;24.93;22.33;;;2.20;54.30;;;;;;20520;6841;308056;-76
2023/01/27 08:07:49;;;;;;;27.67;21.73;;;2.40;54.00;;;;;;20727;6841;117816;-77
2023/01/27 08:10:16;;;;;;;23.87;21.37;;;2.40;53.50;;;;;;20487;6841;307548;-77
2023/01/27 08:12:40;;;;;;;20.57;17.43;;;2.40;54.10;;;;;;20712;6841;119942;-77
2023/01/27 08:15:06;;;;;;;18.80;15.23;;;2.40;54.10;;;;;;20702;6841;117636;-77
2023/01/27 08:17:32;;;;;;;17.97;15.30;;;2.20;54.30;;;;;;20728;6841;117323;-76
2023/01/27 08:19:57;;;;;;;23.20;20.77;;;2.00;54.70;;;;;;20492;6841;312337;-76
2023/01/27 08:22:23;;;;;;;18.27;14.83;;;2.20;54.80;;;;;;20705;6841;120595;-77
2023/01/27 08:24:48;;;;;;;18.92;15.32;;;2.20;54.50;;;;;;20703;6841;117828;-77
2023/01/27 08:27:14;;;;;;;20.00;14.93;;;2.10;54.70;;;;;;20706;6841;119101;-77
2023/01/27 08:29:39;;;;;;;15.77;14.00;;;1.90;54.90;;;;;;20726;6841;120356;-76
2023/01/27 08:32:05;;;;;;;21.90;19.50;;;1.80;55.10;;;;;;20516;6841;277756;-76
2023/01/27 08:34:32;;;;;;;21.25;19.08;;;2.00;55.10;;;;;;20495;6841;277771;-76
2023/01/27 08:36:56;;;;;;;21.05;18.85;;;2.40;54.70;;;;;;20492;6841;307727;-76
2023/01/27 08:39:22;;;;;;;15.30;13.70;;;2.70;53.40;;;;;;20719;6841;118097;-76
2023/01/27 08:41:47;;;;;;;14.33;11.93;;;2.70;53.20;;;;;;20725;6841;118922;-77
2023/01/27 08:44:13;;;;;;;18.45;16.65;;;2.40;53.30;;;;;;20517;6839;308014;-77
2023/01/27 08:46:38;;;;;;;18.93;17.07;;;2.50;53.40;;;;;;20515;6840;306265;-79
2023/01/27 08:49:04;;;;;;;16.23;14.27;;;2.70;52.70;;;;;;20708;6841;143850;-77
2023/01/27 08:51:30;;;;;;;14.30;12.70;;;2.40;52.90;;;;;;20732;6841;118280;-77
2023/01/27 08:53:57;;;;;;;14.07;12.20;;;2.30;54.20;;;;;;20723;6841;117234;-77
2023/01/27 08:56:22;;;;;;;18.33;16.40;;;2.20;53.50;;;;;;20497;6841;308566;-77
2023/01/27 08:58:50;;;;;;;19.80;17.80;;;2.40;53.40;;;;;;20516;6841;278952;-79
2023/01/27 09:01:13;;;;;;;16.80;14.35;;;2.70;53.10;;;;;;20715;6841;117723;-76
2023/01/27 09:03:40;;;;;;;14.32;12.73;;;2.50;53.00;;;;;;20722;6841;117345;-76
2023/01/27 09:06:07;;;;;;;14.03;12.53;;;2.50;53.00;;;;;;20732;6841;117771;-76
2023/01/27 09:08:32;;;;;;;12.47;11.07;;;2.30;53.40;;;;;;20723;6841;117580;-76
2023/01/27 09:10:58;;;;;;;16.65;13.10;;;2.10;53.70;;;;;;20703;6841;118256;-78
2023/01/27 09:13:27;;;;;;;18.83;17.02;;;2.20;53.90;;;;;;20514;6841;312983;-76
2023/01/27 09:15:51;;;;;;;19.57;17.67;;;2.10;53.70;;;;;;20517;6841;277966;-74
2023/01/27 09:18:16;;;;;;;20.88;18.67;;;2.50;52.70;;;;;;20517;6841;308070;-74
2023/01/27 09:20:42;;;;;;;18.80;16.95;;;2.80;52.00;;;;;;20511;6841;311644;-74
2023/01/27 09:23:07;;;;;;;15.33;13.03;;;3.10;51.80;;;;;;20709;6841;117654;-76
2023/01/27 09:25:33;;;;;;;19.05;17.15;;;3.00;51.70;;;;;;20518;6841;278121;-78
2023/01/27 09:27:58;;;;;;;18.50;16.65;;;3.00;51.80;;;;;;20519;6841;282492;-77
2023/01/27 09:30:24;;;;;;;14.90;13.33;;;3.20;51.30;;;;;;20725;6841;117508;-75
2023/01/27 09:32:49;;;;;;;13.63;12.03;;;3.10;51.20;;;;;;20710;6841;117385;-77
2023/01/27 09:35:15;;;;;;;14.77;12.53;;;2.90;51.80;;;;;;20711;6841;118104;-74
2023/01/27 09:37:47;;;;;;;15.90;12.43;;;2.40;52.50;;;;;;20728;6841;117654;-75
2023/01/27 09:40:17;;;;;;;18.23;16.43;;;2.40;52.50;;;;;;20494;6841;313131;-77
2023/01/27 09:42:43;;;;;;;13.97;12.33;;;2.50;52.10;;;;;;20359;6841;119713;-78
2023/01/27 09:45:16;;;;;;;13.77;11.20;;;2.50;52.20;;;;;;20704;6841;117543;-78
2023/01/27 09:47:41;;;;;;;16.23;14.63;;;2.40;52.20;;;;;;20562;6841;336603;-79
2023/01/27 09:50:16;;;;;;;16.60;15.07;;;2.50;51.80;;;;;;20514;6841;307567;-79
2023/01/27 09:53:11;;;;;;;15.33;13.93;;;2.70;51.30;;;;;;20512;6841;315680;-77
2023/01/27 09:55:51;;;;;;;12.10;10.80;;;2.80;50.40;;;;;;20730;6839;117410;-75
2023/01/27 09:58:47;;;;;;;20.30;18.30;;;2.90;50.50;;;;;;20510;6840;278464;-77
2023/01/27 10:01:47;;;;;;;17.43;15.83;;;3.10;50.00;;;;;;20499;6841;308975;-72
2023/01/27 10:04:22;;;;;;;13.03;11.63;;;3.10;50.00;;;;;;20729;6841;117994;-77
2023/01/27 10:06:57;;;;;;;12.97;11.47;;;2.90;50.10;;;;;;20724;6841;117944;-75
2023/01/27 10:09:45;;;;;;;15.35;14.00;;;2.60;50.60;;;;;;20492;6841;329934;-74
2023/01/27 10:12:34;;;;;;;12.30;11.13;;;2.60;50.70;;;;;;20711;6841;117313;-76
2023/01/27 10:15:13;;;;;;;15.25;13.75;;;2.50;50.90;;;;;;20488;6841;337661;-75
2023/01/27 10:17:42;;;;;;;14.38;13.07;;;2.60;50.80;;;;;;19924;6841;341376;-75
2023/01/27 10:20:15;;;;;;;15.10;13.80;;;3.10;49.60;;;;;;20519;6841;309675;-74
2023/01/27 10:23:00;;;;;;;11.43;10.33;;;3.10;49.60;;;;;;20710;6841;118132;-77
2023/01/27 10:25:46;;;;;;;11.70;10.33;;;3.00;49.70;;;;;;20734;6841;117904;-75
2023/01/27 10:28:15;;;;;;;15.17;13.83;;;2.70;50.20;;;;;;20504;6841;277738;-75
2023/01/27 10:30:47;;;;;;;14.95;13.62;;;2.70;50.00;;;;;;20515;6841;278971;-75
2023/01/27 10:33:16;;;;;;;12.30;11.00;;;2.90;49.30;;;;;;20687;6841;117719;-74
2023/01/27 10:35:51;;;;;;;12.53;11.37;;;2.70;49.20;;;;;;20726;6841;118132;-75
2023/01/27 10:38:22;;;;;;;19.70;15.57;;;2.40;49.50;;;;;;20720;6841;117157;-75
2023/01/27 10:41:14;;;;;;;15.30;13.00;;;2.20;50.30;;;;;;20708;6841;117836;-74
2023/01/27 10:43:47;;;;;;;13.70;11.87;;;2.00;50.70;;;;;;20716;6841;117168;-76
2023/01/27 10:46:31;;;;;;;13.97;12.27;;;1.70;51.50;;;;;;20707;6841;117409;-76
2023/01/27 10:49:23;;;;;;;15.73;12.63;;;1.60;52.10;;;;;;20684;6841;124700;-77
2023/01/27 10:52:00;;;;;;;19.60;16.93;;;1.60;52.00;;;;;;19796;6841;311989;-76
2023/01/27 10:54:49;;;;;;;17.80;14.17;;;1.90;51.90;;;;;;20714;6841;117857;-77
2023/01/27 10:57:31;;;;;;;18.70;16.20;;;2.00;51.50;;;;;;20676;6841;119664;-76
2023/01/27 11:00:05;;;;;;;23.23;17.33;;;1.80;52.30;;;;;;20724;6841;117890;-74
2023/01/27 11:02:29;;;;;;;20.90;18.60;;;1.80;52.30;;;;;;20506;6841;308013;-73
2023/01/27 11:05:04;;;;;;;22.00;19.70;;;2.00;52.50;;;;;;20477;6841;311408;-75
2023/01/27 11:07:29;;;;;;;20.47;14.63;;;2.40;51.70;;;;;;20715;6839;117857;-78
2023/01/27 11:10:05;;;;;;;23.67;19.17;;;2.40;51.20;;;;;;20518;6840;278885;-75
2023/01/27 11:12:34;;;;;;;22.17;18.73;;;2.50;51.20;;;;;;20379;6841;309619;-74
2023/01/27 11:15:10;;;;;;;19.70;15.00;;;2.80;51.30;;;;;;20709;6841;117455;-76
2023/01/27 11:17:45;;;;;;;18.10;16.20;;;2.80;51.00;;;;;;20082;6841;307619;-73
2023/01/27 11:20:18;;;;;;;17.83;16.00;;;2.90;50.70;;;;;;20516;6841;277639;-78
2023/01/27 11:22:47;;;;;;;18.58;16.67;;;3.10;49.60;;;;;;20519;6841;278502;-74
2023/01/27 11:25:24;;;;;;;25.42;22.98;;;3.30;48.80;;;;;;20484;6841;337148;-75
2023/01/27 11:28:09;;;;;;;33.53;30.00;;;3.50;48.20;;;;;;20523;6841;278000;-82
2023/01/27 11:30:35;;;;;;;15.43;12.67;;;3.60;47.70;;;;;;20728;6841;121342;-76
2023/01/27 11:33:01;;;;;;;17.45;15.63;;;3.20;48.20;;;;;;20482;6841;284060;-75
2023/01/27 11:35:27;;;;;;;21.17;17.40;;;3.20;48.20;;;;;;20704;6841;121427;-74
2023/01/27 11:38:20;;;;;;;19.27;14.93;;;2.80;49.10;;;;;;20736;6841;117872;-80
2023/01/27 11:40:47;;;;;;;24.90;18.17;;;2.50;49.70;;;;;;20711;6841;118038;-75
2023/01/27 11:43:13;;;;;;;53.80;35.60;;;2.50;49.70;;;;;;20692;6841;118007;-75
2023/01/27 11:45:45;;;;;;;25.93;20.07;;;2.30;50.10;;;;;;20670;6841;119471;-75
2023/01/27 11:48:10;;;;;;;18.25;16.35;;;2.20;50.80;;;;;;20492;6841;278175;-76
2023/01/27 11:50:36;;;;;;;17.77;15.87;;;2.40;50.80;;;;;;20512;6841;307753;-76
2023/01/27 11:53:18;;;;;;;18.43;16.53;;;2.80;50.40;;;;;;20496;6841;337526;-77
2023/01/27 11:56:00;;;;;;;17.03;15.17;;;3.10;49.40;;;;;;20524;6841;278749;-75
2023/01/27 11:58:34;;;;;;;15.90;14.30;;;3.40;48.70;;;;;;20505;6841;314510;-76
2023/01/27 12:01:03;;;;;;;14.90;12.43;;;3.70;48.30;;;;;;20678;6841;118832;-75
2023/01/27 12:03:58;;;;;;;20.47;18.57;;;3.60;48.20;;;;;;20467;6841;279364;-75
2023/01/27 12:06:37;;;;;;;15.33;13.73;;;3.50;47.90;;;;;;20691;6841;117326;-75
2023/01/27 12:09:02;;;;;;;15.20;11.47;;;3.40;48.20;;;;;;20691;6841;118245;-79
2023/01/27 12:11:29;;;;;;;17.60;15.80;;;3.10;48.70;;;;;;20525;6841;312715;-78
2023/01/27 12:14:02;;;;;;;18.00;14.80;;;3.10;49.00;;;;;;20730;6841;117855;-74
2023/01/27 12:16:44;;;;;;;23.07;20.80;;;3.00;48.90;;;;;;20727;6841;117625;-75
2023/01/27 12:19:19;;;;;;;12.93;11.50;;;2.90;49.50;;;;;;20674;6839;117797;-77
2023/01/27 12:21:45;;;;;;;16.63;14.93;;;2.70;50.00;;;;;;20252;6840;292679;-79
2023/01/27 12:24:19;;;;;;;20.95;16.80;;;2.80;49.90;;;;;;20515;6841;308040;-78
2023/01/27 12:26:45;;;;;;;18.30;16.40;;;3.10;49.60;;;;;;20510;6841;278101;-78
2023/01/27 12:29:11;;;;;;;15.65;14.15;;;3.60;48.50;;;;;;20500;6841;317705;-79
2023/01/27 12:31:47;;;;;;;47.80;35.30;;;3.60;48.40;;;;;;20701;6841;117901;-80
2023/01/27 12:34:22;;;;;;;16.67;14.93;;;3.50;48.50;;;;;;20508;6841;279073;-80
2023/01/27 12:36:49;;;;;;;14.77;12.10;;;3.50;48.80;;;;;;20718;6841;118220;-79
2023/01/27 12:39:41;;;;;;;18.90;16.90;;;3.40;49.00;;;;;;20498;6841;310173;-79
2023/01/27 12:42:34;;;;;;;14.33;12.57;;;3.40;48.90;;;;;;20730;6841;119417;-74
2023/01/27 12:44:58;;;;;;;18.60;16.80;;;3.30;49.10;;;;;;20708;6841;121532;-73
2023/01/27 12:47:24;;;;;;;13.27;11.93;;;3.00;49.40;;;;;;20726;6841;118695;-71
2023/01/27 12:49:50;;;;;;;17.37;15.68;;;2.80;50.30;;;;;;20504;6841;308059;-74
2023/01/27 12:52:18;;;;;;;19.57;17.57;;;2.90;49.70;;;;;;20715;6841;117333;-74
2023/01/27 12:54:44;;;;;;;18.12;16.42;;;2.90;49.80;;;;;;20521;6841;278156;-74
2023/01/27 12:57:14;;;;;;;16.15;14.63;;;3.00;50.10;;;;;;20505;6841;307691;-74
2023/01/27 12:59:49;;;;;;;17.30;15.70;;;3.60;49.80;;;;;;20461;6841;312090;-74